Terminal Aerodrome Forecast
Issued by NWS Louisville, KY

Home | Current Version | Previous Version | Text Only | Print | Product List | Glossary On
Versions: 1 2 3 4 5 6 7 8 9 10 11 12 13
000
FTUS43 KLMK 241700
TAFSDF
TAF
KSDF 241728Z 2418/2524 22008KT P6SM FEW025 SCT250
     FM250300 25007KT P6SM BKN022
      TEMPO 2509/2511 6SM BR BKN012
     FM251100 VRB05KT 6SM BR BKN012=

USA.gov is the U.S. government's official web portal to all federal, state and local government web resources and services.